sensor_id;sensor_type;location;lat;lon;timestamp;pressure;altitude;pressure_sealevel;temperature;humidity
43364;BME280;40636;52.424;-1.948;2022-08-06T00:02:25;101206.88;;;10.99;76.09
43364;BME280;40636;52.424;-1.948;2022-08-06T00:05:00;101207.06;;;11.04;75.94
43364;BME280;40636;52.424;-1.948;2022-08-06T00:07:29;101203.69;;;11.02;77.30
43364;BME280;40636;52.424;-1.948;2022-08-06T00:10:17;101211.31;;;11.00;77.11
43364;BME280;40636;52.424;-1.948;2022-08-06T00:12:45;101211.75;;;10.97;77.18
43364;BME280;40636;52.424;-1.948;2022-08-06T00:15:14;101206.09;;;10.92;77.97
43364;BME280;40636;52.424;-1.948;2022-08-06T00:18:04;101217.28;;;10.90;78.70
43364;BME280;40636;52.424;-1.948;2022-08-06T00:20:31;101213.50;;;10.85;76.98
43364;BME280;40636;52.424;-1.948;2022-08-06T00:23:07;101213.59;;;10.72;78.40
43364;BME280;40636;52.424;-1.948;2022-08-06T00:25:42;101214.31;;;10.60;79.86
43364;BME280;40636;52.424;-1.948;2022-08-06T00:28:17;101214.13;;;10.49;80.13
43364;BME280;40636;52.424;-1.948;2022-08-06T00:30:46;101213.38;;;10.35;80.24
43364;BME280;40636;52.424;-1.948;2022-08-06T00:33:13;101211.94;;;10.26;80.12
43364;BME280;40636;52.424;-1.948;2022-08-06T00:35:41;101223.97;;;10.25;82.06
43364;BME280;40636;52.424;-1.948;2022-08-06T00:38:11;101217.84;;;10.23;81.96
43364;BME280;40636;52.424;-1.948;2022-08-06T00:40:40;101214.03;;;10.24;81.21
43364;BME280;40636;52.424;-1.948;2022-08-06T00:43:26;101211.47;;;10.35;80.78
43364;BME280;40636;52.424;-1.948;2022-08-06T00:46:05;101214.19;;;10.42;80.32
43364;BME280;40636;52.424;-1.948;2022-08-06T00:48:42;101217.78;;;10.43;80.26
43364;BME280;40636;52.424;-1.948;2022-08-06T00:51:21;101211.47;;;10.35;81.02
43364;BME280;40636;52.424;-1.948;2022-08-06T00:53:49;101222.47;;;10.29;81.76
43364;BME280;40636;52.424;-1.948;2022-08-06T00:56:23;101210.47;;;10.16;81.48
43364;BME280;40636;52.424;-1.948;2022-08-06T00:58:54;101217.66;;;10.11;81.53
43364;BME280;40636;52.424;-1.948;2022-08-06T01:01:30;101218.13;;;10.01;82.85
43364;BME280;40636;52.424;-1.948;2022-08-06T01:04:11;101221.94;;;9.94;83.85
43364;BME280;40636;52.424;-1.948;2022-08-06T01:06:42;101225.97;;;9.78;83.77
43364;BME280;40636;52.424;-1.948;2022-08-06T01:09:24;101224.94;;;9.65;84.11
43364;BME280;40636;52.424;-1.948;2022-08-06T01:11:51;101230.00;;;9.62;85.68
43364;BME280;40636;52.424;-1.948;2022-08-06T01:14:26;101230.63;;;9.57;84.79
43364;BME280;40636;52.424;-1.948;2022-08-06T01:17:28;101234.47;;;9.50;86.50
43364;BME280;40636;52.424;-1.948;2022-08-06T01:20:16;101221.59;;;9.50;87.07
43364;BME280;40636;52.424;-1.948;2022-08-06T01:28:49;101218.66;;;9.45;86.58
43364;BME280;40636;52.424;-1.948;2022-08-06T01:32:14;101224.78;;;9.40;87.12
43364;BME280;40636;52.424;-1.948;2022-08-06T01:34:59;101223.91;;;9.33;86.67
43364;BME280;40636;52.424;-1.948;2022-08-06T01:39:42;101224.56;;;9.29;87.69
43364;BME280;40636;52.424;-1.948;2022-08-06T01:42:29;101232.16;;;9.27;86.80
43364;BME280;40636;52.424;-1.948;2022-08-06T01:45:04;101235.94;;;9.19;86.45
43364;BME280;40636;52.424;-1.948;2022-08-06T01:47:36;101235.09;;;9.19;87.72
43364;BME280;40636;52.424;-1.948;2022-08-06T01:50:24;101230.47;;;9.19;87.57
43364;BME280;40636;52.424;-1.948;2022-08-06T01:52:56;101228.34;;;9.28;87.86
43364;BME280;40636;52.424;-1.948;2022-08-06T01:55:29;101232.13;;;9.33;87.62
43364;BME280;40636;52.424;-1.948;2022-08-06T01:58:24;101234.88;;;9.40;86.73
43364;BME280;40636;52.424;-1.948;2022-08-06T02:00:58;101231.69;;;9.56;86.40
43364;BME280;40636;52.424;-1.948;2022-08-06T02:03:45;101230.22;;;9.74;86.71
43364;BME280;40636;52.424;-1.948;2022-08-06T02:06:32;101224.31;;;9.77;84.73
43364;BME280;40636;52.424;-1.948;2022-08-06T02:09:04;101225.34;;;9.82;84.84
43364;BME280;40636;52.424;-1.948;2022-08-06T02:12:03;101225.97;;;9.84;85.71
43364;BME280;40636;52.424;-1.948;2022-08-06T02:14:36;101225.75;;;9.86;85.38
43364;BME280;40636;52.424;-1.948;2022-08-06T02:17:10;101224.25;;;9.97;85.66
43364;BME280;40636;52.424;-1.948;2022-08-06T02:19:47;101220.03;;;10.01;85.03
43364;BME280;40636;52.424;-1.948;2022-08-06T02:22:37;101221.28;;;9.98;84.66
43364;BME280;40636;52.424;-1.948;2022-08-06T02:25:10;101224.84;;;9.99;84.35
43364;BME280;40636;52.424;-1.948;2022-08-06T02:27:50;101230.38;;;9.92;85.73
43364;BME280;40636;52.424;-1.948;2022-08-06T02:30:25;101227.22;;;9.95;85.52
43364;BME280;40636;52.424;-1.948;2022-08-06T02:33:02;101222.16;;;9.92;85.40
43364;BME280;40636;52.424;-1.948;2022-08-06T02:35:33;101231.22;;;9.93;84.13
43364;BME280;40636;52.424;-1.948;2022-08-06T02:38:17;101232.06;;;9.93;84.22
43364;BME280;40636;52.424;-1.948;2022-08-06T02:41:10;101231.41;;;9.98;85.09
43364;BME280;40636;52.424;-1.948;2022-08-06T02:43:49;101237.53;;;9.93;84.45
43364;BME280;40636;52.424;-1.948;2022-08-06T02:46:23;101233.09;;;9.99;85.68
43364;BME280;40636;52.424;-1.948;2022-08-06T02:48:58;101232.94;;;9.87;85.66
43364;BME280;40636;52.424;-1.948;2022-08-06T02:51:34;101234.81;;;9.86;86.95
43364;BME280;40636;52.424;-1.948;2022-08-06T02:54:28;101231.25;;;9.66;85.71
43364;BME280;40636;52.424;-1.948;2022-08-06T02:57:06;101240.16;;;9.55;87.06
43364;BME280;40636;52.424;-1.948;2022-08-06T02:59:39;101248.16;;;9.43;87.48
43364;BME280;40636;52.424;-1.948;2022-08-06T03:02:10;101247.97;;;9.31;87.24
43364;BME280;40636;52.424;-1.948;2022-08-06T03:04:44;101243.75;;;9.22;88.27
43364;BME280;40636;52.424;-1.948;2022-08-06T03:07:20;101245.41;;;9.17;89.96
43364;BME280;40636;52.424;-1.948;2022-08-06T03:09:53;101242.00;;;9.08;90.21
43364;BME280;40636;52.424;-1.948;2022-08-06T03:12:22;101235.72;;;9.01;89.89
43364;BME280;40636;52.424;-1.948;2022-08-06T03:14:58;101243.50;;;8.91;90.69
43364;BME280;40636;52.424;-1.948;2022-08-06T03:17:36;101243.47;;;8.84;90.62
43364;BME280;40636;52.424;-1.948;2022-08-06T03:20:05;101241.34;;;8.79;91.05
43364;BME280;40636;52.424;-1.948;2022-08-06T03:22:44;101232.47;;;8.71;91.46
43364;BME280;40636;52.424;-1.948;2022-08-06T03:25:15;101235.66;;;8.68;92.09
43364;BME280;40636;52.424;-1.948;2022-08-06T03:27:43;101249.72;;;8.64;92.68
43364;BME280;40636;52.424;-1.948;2022-08-06T03:30:13;101244.44;;;8.56;92.78
43364;BME280;40636;52.424;-1.948;2022-08-06T03:33:09;101239.63;;;8.58;93.16
43364;BME280;40636;52.424;-1.948;2022-08-06T03:35:56;101250.56;;;8.58;93.19
43364;BME280;40636;52.424;-1.948;2022-08-06T03:38:27;101248.00;;;8.57;92.27
43364;BME280;40636;52.424;-1.948;2022-08-06T03:40:57;101252.81;;;8.48;93.22
43364;BME280;40636;52.424;-1.948;2022-08-06T03:43:27;101258.06;;;8.43;92.52
43364;BME280;40636;52.424;-1.948;2022-08-06T03:46:15;101263.44;;;8.30;93.88
43364;BME280;40636;52.424;-1.948;2022-08-06T03:48:44;101259.88;;;8.29;94.42
43364;BME280;40636;52.424;-1.948;2022-08-06T03:51:15;101262.22;;;8.32;95.01
43364;BME280;40636;52.424;-1.948;2022-08-06T03:54:05;101259.25;;;8.34;95.10
43364;BME280;40636;52.424;-1.948;2022-08-06T03:56:35;101262.25;;;8.39;95.26
43364;BME280;40636;52.424;-1.948;2022-08-06T03:59:05;101261.78;;;8.35;94.26
43364;BME280;40636;52.424;-1.948;2022-08-06T04:01:36;101263.06;;;8.33;93.68
43364;BME280;40636;52.424;-1.948;2022-08-06T04:04:17;101258.41;;;8.27;94.35
43364;BME280;40636;52.424;-1.948;2022-08-06T04:06:53;101256.28;;;8.22;94.61
43364;BME280;40636;52.424;-1.948;2022-08-06T04:09:20;101252.03;;;8.20;95.66
43364;BME280;40636;52.424;-1.948;2022-08-06T04:12:08;101263.81;;;8.13;95.40
43364;BME280;40636;52.424;-1.948;2022-08-06T04:14:55;101255.84;;;8.19;95.86
43364;BME280;40636;52.424;-1.948;2022-08-06T04:17:22;101250.97;;;8.14;95.83
43364;BME280;40636;52.424;-1.948;2022-08-06T04:19:51;101257.91;;;8.17;95.59
43364;BME280;40636;52.424;-1.948;2022-08-06T04:22:22;101257.31;;;8.21;95.60
43364;BME280;40636;52.424;-1.948;2022-08-06T04:25:09;101267.00;;;8.24;96.10
43364;BME280;40636;52.424;-1.948;2022-08-06T04:27:41;101267.84;;;8.24;95.73
43364;BME280;40636;52.424;-1.948;2022-08-06T04:30:21;101283.19;;;8.19;96.02
43364;BME280;40636;52.424;-1.948;2022-08-06T04:32:52;101282.75;;;8.22;95.68
43364;BME280;40636;52.424;-1.948;2022-08-06T04:35:28;101279.59;;;8.18;95.82
43364;BME280;40636;52.424;-1.948;2022-08-06T04:38:17;101287.81;;;8.25;95.86
43364;BME280;40636;52.424;-1.948;2022-08-06T04:40:55;101276.88;;;8.25;95.28
43364;BME280;40636;52.424;-1.948;2022-08-06T04:43:23;101277.13;;;8.30;95.64
43364;BME280;40636;52.424;-1.948;2022-08-06T04:46:10;101281.72;;;8.23;95.40
43364;BME280;40636;52.424;-1.948;2022-08-06T04:48:46;101285.50;;;8.22;95.31
43364;BME280;40636;52.424;-1.948;2022-08-06T04:51:22;101287.81;;;8.18;95.88
43364;BME280;40636;52.424;-1.948;2022-08-06T04:54:09;101296.63;;;8.20;95.90
43364;BME280;40636;52.424;-1.948;2022-08-06T04:56:39;101290.56;;;8.25;96.29
43364;BME280;40636;52.424;-1.948;2022-08-06T04:59:16;101295.19;;;8.24;95.52
43364;BME280;40636;52.424;-1.948;2022-08-06T05:01:43;101290.06;;;8.43;95.53
43364;BME280;40636;52.424;-1.948;2022-08-06T05:04:29;101293.75;;;8.70;95.63
43364;BME280;40636;52.424;-1.948;2022-08-06T05:07:15;101289.59;;;8.87;94.62
43364;BME280;40636;52.424;-1.948;2022-08-06T05:09:43;101297.63;;;8.95;93.98
43364;BME280;40636;52.424;-1.948;2022-08-06T05:12:45;101301.19;;;9.02;93.34
43364;BME280;40636;52.424;-1.948;2022-08-06T05:15:38;101295.91;;;8.94;92.83
43364;BME280;40636;52.424;-1.948;2022-08-06T05:18:21;101299.47;;;8.88;93.46
43364;BME280;40636;52.424;-1.948;2022-08-06T05:21:08;101290.66;;;8.86;93.85
43364;BME280;40636;52.424;-1.948;2022-08-06T05:23:45;101288.53;;;8.95;94.20
43364;BME280;40636;52.424;-1.948;2022-08-06T05:26:13;101289.84;;;9.05;94.26
43364;BME280;40636;52.424;-1.948;2022-08-06T05:28:51;101289.44;;;9.15;94.49
43364;BME280;40636;52.424;-1.948;2022-08-06T05:31:34;101293.47;;;9.32;93.07
43364;BME280;40636;52.424;-1.948;2022-08-06T05:34:10;101293.03;;;9.35;93.35
43364;BME280;40636;52.424;-1.948;2022-08-06T05:36:37;101294.94;;;9.35;93.97
43364;BME280;40636;52.424;-1.948;2022-08-06T05:39:07;101293.25;;;9.34;93.26
43364;BME280;40636;52.424;-1.948;2022-08-06T05:41:54;101301.69;;;9.39;94.50
43364;BME280;40636;52.424;-1.948;2022-08-06T05:44:26;101296.22;;;9.52;93.48
43364;BME280;40636;52.424;-1.948;2022-08-06T05:46:59;101297.88;;;9.66;93.75
43364;BME280;40636;52.424;-1.948;2022-08-06T05:49:36;101296.19;;;9.79;94.42
43364;BME280;40636;52.424;-1.948;2022-08-06T05:52:47;101293.66;;;9.90;92.75
43364;BME280;40636;52.424;-1.948;2022-08-06T05:55:31;101303.75;;;10.10;92.61
43364;BME280;40636;52.424;-1.948;2022-08-06T05:58:14;101303.31;;;10.33;91.09
43364;BME280;40636;52.424;-1.948;2022-08-06T06:00:42;101300.28;;;10.54;90.63
43364;BME280;40636;52.424;-1.948;2022-08-06T06:03:15;101306.69;;;10.80;89.69
43364;BME280;40636;52.424;-1.948;2022-08-06T06:05:55;101304.25;;;11.03;87.58
43364;BME280;40636;52.424;-1.948;2022-08-06T06:08:43;101302.22;;;11.24;86.23
43364;BME280;40636;52.424;-1.948;2022-08-06T06:11:25;101306.13;;;11.41;86.10
43364;BME280;40636;52.424;-1.948;2022-08-06T06:14:40;101303.44;;;11.59;84.80
43364;BME280;40636;52.424;-1.948;2022-08-06T06:26:25;101307.28;;;12.27;82.87
43364;BME280;40636;52.424;-1.948;2022-08-06T06:35:22;101300.13;;;12.74;81.07
43364;BME280;40636;52.424;-1.948;2022-08-06T06:46:17;101306.16;;;13.31;78.38
43364;BME280;40636;52.424;-1.948;2022-08-06T06:49:17;101309.75;;;13.43;77.92
43364;BME280;40636;52.424;-1.948;2022-08-06T06:52:18;101312.56;;;13.55;77.44
43364;BME280;40636;52.424;-1.948;2022-08-06T06:55:09;101312.34;;;13.68;76.59
43364;BME280;40636;52.424;-1.948;2022-08-06T06:57:49;101311.50;;;13.80;75.49
43364;BME280;40636;52.424;-1.948;2022-08-06T07:00:18;101317.50;;;13.88;75.56
43364;BME280;40636;52.424;-1.948;2022-08-06T07:03:06;101324.97;;;14.00;74.87
43364;BME280;40636;52.424;-1.948;2022-08-06T07:05:38;101330.97;;;13.96;74.36
43364;BME280;40636;52.424;-1.948;2022-08-06T07:08:28;101325.78;;;14.24;75.15
43364;BME280;40636;52.424;-1.948;2022-08-06T07:11:04;101323.88;;;14.36;73.38
43364;BME280;40636;52.424;-1.948;2022-08-06T07:13:35;101324.25;;;14.28;72.94
43364;BME280;40636;52.424;-1.948;2022-08-06T07:16:19;101324.59;;;14.55;72.88
43364;BME280;40636;52.424;-1.948;2022-08-06T07:19:06;101326.25;;;14.67;72.25
43364;BME280;40636;52.424;-1.948;2022-08-06T07:21:38;101325.63;;;14.77;70.87
43364;BME280;40636;52.424;-1.948;2022-08-06T07:24:10;101325.81;;;14.87;70.57
43364;BME280;40636;52.424;-1.948;2022-08-06T07:26:58;101335.97;;;14.98;69.56
43364;BME280;40636;52.424;-1.948;2022-08-06T07:29:29;101335.84;;;15.05;68.99
43364;BME280;40636;52.424;-1.948;2022-08-06T07:32:17;101336.06;;;15.15;68.00
43364;BME280;40636;52.424;-1.948;2022-08-06T07:35:05;101337.69;;;15.28;68.38
43364;BME280;40636;52.424;-1.948;2022-08-06T07:38:03;101346.91;;;15.34;68.25
43364;BME280;40636;52.424;-1.948;2022-08-06T07:40:43;101342.81;;;15.36;67.02
43364;BME280;40636;52.424;-1.948;2022-08-06T07:43:42;101350.72;;;15.44;66.75
43364;BME280;40636;52.424;-1.948;2022-08-06T07:46:20;101355.50;;;15.49;66.92
43364;BME280;40636;52.424;-1.948;2022-08-06T07:48:57;101347.28;;;15.54;66.08
43364;BME280;40636;52.424;-1.948;2022-08-06T07:51:28;101350.84;;;15.66;66.89
43364;BME280;40636;52.424;-1.948;2022-08-06T07:54:01;101343.66;;;15.82;67.35
43364;BME280;40636;52.424;-1.948;2022-08-06T07:56:40;101357.09;;;15.90;65.64
43364;BME280;40636;52.424;-1.948;2022-08-06T07:59:28;101351.69;;;15.84;64.92
43364;BME280;40636;52.424;-1.948;2022-08-06T08:01:57;101352.38;;;15.91;65.92
43364;BME280;40636;52.424;-1.948;2022-08-06T08:04:27;101362.28;;;15.87;63.96
43364;BME280;40636;52.424;-1.948;2022-08-06T08:07:21;101360.34;;;15.87;63.02
43364;BME280;40636;52.424;-1.948;2022-08-06T08:10:09;101360.16;;;15.94;63.85
43364;BME280;40636;52.424;-1.948;2022-08-06T08:12:36;101359.00;;;15.90;63.25
43364;BME280;40636;52.424;-1.948;2022-08-06T08:15:08;101358.00;;;15.96;63.21
43364;BME280;40636;52.424;-1.948;2022-08-06T08:17:44;101360.94;;;16.06;62.69
43364;BME280;40636;52.424;-1.948;2022-08-06T08:20:26;101359.81;;;16.07;62.68
43364;BME280;40636;52.424;-1.948;2022-08-06T08:23:04;101363.13;;;16.04;60.85
43364;BME280;40636;52.424;-1.948;2022-08-06T08:25:33;101358.56;;;16.15;62.15
43364;BME280;40636;52.424;-1.948;2022-08-06T08:28:11;101365.63;;;16.22;61.65
43364;BME280;40636;52.424;-1.948;2022-08-06T08:30:44;101354.22;;;16.19;60.74
43364;BME280;40636;52.424;-1.948;2022-08-06T08:33:15;101353.13;;;16.03;61.21
43364;BME280;40636;52.424;-1.948;2022-08-06T08:35:46;101358.84;;;16.13;61.21
43364;BME280;40636;52.424;-1.948;2022-08-06T08:38:27;101361.25;;;16.27;61.43
43364;BME280;40636;52.424;-1.948;2022-08-06T08:40:55;101358.78;;;16.30;61.21
43364;BME280;40636;52.424;-1.948;2022-08-06T08:43:27;101360.72;;;16.30;62.65
43364;BME280;40636;52.424;-1.948;2022-08-06T08:46:17;101366.91;;;16.54;60.98
43364;BME280;40636;52.424;-1.948;2022-08-06T08:49:00;101359.69;;;16.53;59.68
43364;BME280;40636;52.424;-1.948;2022-08-06T08:51:37;101356.47;;;16.61;59.94
43364;BME280;40636;52.424;-1.948;2022-08-06T08:54:09;101357.63;;;16.65;59.35
43364;BME280;40636;52.424;-1.948;2022-08-06T08:56:44;101365.28;;;16.74;58.80
43364;BME280;40636;52.424;-1.948;2022-08-06T08:59:32;101361.31;;;16.70;59.07
43364;BME280;40636;52.424;-1.948;2022-08-06T09:02:19;101366.78;;;16.65;59.54
43364;BME280;40636;52.424;-1.948;2022-08-06T09:04:50;101364.63;;;16.67;58.06
43364;BME280;40636;52.424;-1.948;2022-08-06T09:07:18;101354.31;;;16.63;56.37
43364;BME280;40636;52.424;-1.948;2022-08-06T09:10:01;101371.75;;;16.63;57.07
43364;BME280;40636;52.424;-1.948;2022-08-06T09:12:30;101370.41;;;16.66;58.59
43364;BME280;40636;52.424;-1.948;2022-08-06T09:15:01;101372.75;;;16.57;59.00
43364;BME280;40636;52.424;-1.948;2022-08-06T09:17:29;101374.47;;;16.58;59.02
43364;BME280;40636;52.424;-1.948;2022-08-06T09:20:16;101365.81;;;16.55;59.87
43364;BME280;40636;52.424;-1.948;2022-08-06T09:22:44;101370.09;;;16.62;58.88
43364;BME280;40636;52.424;-1.948;2022-08-06T09:31:08;101369.22;;;16.79;57.07
43364;BME280;40636;52.424;-1.948;2022-08-06T09:34:00;101376.09;;;16.98;57.00
43364;BME280;40636;52.424;-1.948;2022-08-06T09:36:48;101372.53;;;17.24;55.64
43364;BME280;40636;52.424;-1.948;2022-08-06T09:39:33;101370.25;;;17.43;56.00
43364;BME280;40636;52.424;-1.948;2022-08-06T09:42:41;101365.38;;;17.56;55.41
43364;BME280;40636;52.424;-1.948;2022-08-06T09:45:11;101370.38;;;17.27;54.21
43364;BME280;40636;52.424;-1.948;2022-08-06T09:47:47;101374.03;;;17.59;54.35
43364;BME280;40636;52.424;-1.948;2022-08-06T09:50:40;101381.16;;;17.50;53.00
43364;BME280;40636;52.424;-1.948;2022-08-06T09:53:09;101374.22;;;17.25;52.85
43364;BME280;40636;52.424;-1.948;2022-08-06T09:55:40;101369.72;;;17.19;54.22
43364;BME280;40636;52.424;-1.948;2022-08-06T09:58:07;101369.28;;;17.55;53.89
43364;BME280;40636;52.424;-1.948;2022-08-06T10:00:37;101362.72;;;17.66;54.17
43364;BME280;40636;52.424;-1.948;2022-08-06T10:03:07;101369.81;;;17.79;52.96
43364;BME280;40636;52.424;-1.948;2022-08-06T10:06:06;101365.63;;;18.08;53.84
43364;BME280;40636;52.424;-1.948;2022-08-06T10:08:37;101367.69;;;18.28;52.43
43364;BME280;40636;52.424;-1.948;2022-08-06T10:11:05;101360.44;;;18.22;51.29
43364;BME280;40636;52.424;-1.948;2022-08-06T10:13:33;101358.25;;;18.29;51.02
43364;BME280;40636;52.424;-1.948;2022-08-06T10:16:20;101357.63;;;18.17;50.21
43364;BME280;40636;52.424;-1.948;2022-08-06T10:18:55;101352.06;;;18.17;50.53
43364;BME280;40636;52.424;-1.948;2022-08-06T10:21:28;101353.84;;;18.33;50.66
43364;BME280;40636;52.424;-1.948;2022-08-06T10:24:09;101360.34;;;18.49;50.73
43364;BME280;40636;52.424;-1.948;2022-08-06T10:26:37;101359.28;;;18.60;50.41
43364;BME280;40636;52.424;-1.948;2022-08-06T10:29:10;101352.59;;;18.61;51.34
43364;BME280;40636;52.424;-1.948;2022-08-06T10:31:40;101354.25;;;18.57;50.35
43364;BME280;40636;52.424;-1.948;2022-08-06T10:34:09;101357.63;;;18.64;49.82
43364;BME280;40636;52.424;-1.948;2022-08-06T10:36:44;101346.06;;;17.98;50.15
43364;BME280;40636;52.424;-1.948;2022-08-06T10:39:14;101353.06;;;18.00;50.44
43364;BME280;40636;52.424;-1.948;2022-08-06T10:42:03;101354.44;;;18.03;50.34
43364;BME280;40636;52.424;-1.948;2022-08-06T10:44:50;101355.41;;;18.19;50.65
43364;BME280;40636;52.424;-1.948;2022-08-06T10:47:19;101347.81;;;18.04;49.09
43364;BME280;40636;52.424;-1.948;2022-08-06T10:50:08;101352.47;;;17.98;50.83
43364;BME280;40636;52.424;-1.948;2022-08-06T10:52:57;101354.56;;;18.18;51.29
43364;BME280;40636;52.424;-1.948;2022-08-06T10:55:28;101350.09;;;18.12;49.59
43364;BME280;40636;52.424;-1.948;2022-08-06T10:58:03;101349.06;;;18.29;50.55
43364;BME280;40636;52.424;-1.948;2022-08-06T11:00:32;101343.56;;;18.39;50.04
43364;BME280;40636;52.424;-1.948;2022-08-06T11:05:36;101346.47;;;18.54;47.13
43364;BME280;40636;52.424;-1.948;2022-08-06T11:11:40;101330.13;;;18.20;47.74
43364;BME280;40636;52.424;-1.948;2022-08-06T11:14:29;101330.75;;;18.33;48.75
43364;BME280;40636;52.424;-1.948;2022-08-06T11:16:59;101331.88;;;18.32;48.53
43364;BME280;40636;52.424;-1.948;2022-08-06T11:19:44;101335.25;;;18.39;48.20
43364;BME280;40636;52.424;-1.948;2022-08-06T11:22:40;101324.31;;;18.22;46.76
43364;BME280;40636;52.424;-1.948;2022-08-06T11:25:38;101326.00;;;18.23;47.89
43364;BME280;40636;52.424;-1.948;2022-08-06T11:28:15;101321.28;;;18.29;47.13
43364;BME280;40636;52.424;-1.948;2022-08-06T11:30:50;101315.19;;;18.32;47.72
43364;BME280;40636;52.424;-1.948;2022-08-06T11:36:06;101314.13;;;18.43;47.25
43364;BME280;40636;52.424;-1.948;2022-08-06T11:41:30;101312.66;;;18.72;47.14
43364;BME280;40636;52.424;-1.948;2022-08-06T11:44:24;101308.13;;;18.66;46.48
43364;BME280;40636;52.424;-1.948;2022-08-06T11:47:11;101311.50;;;18.68;46.62
43364;BME280;40636;52.424;-1.948;2022-08-06T11:49:44;101300.41;;;18.73;46.24
43364;BME280;40636;52.424;-1.948;2022-08-06T11:55:10;101295.72;;;18.84;45.42
43364;BME280;40636;52.424;-1.948;2022-08-06T11:58:35;101288.78;;;18.87;44.44
43364;BME280;40636;52.424;-1.948;2022-08-06T12:00:58;101304.94;;;18.90;44.17
43364;BME280;40636;52.424;-1.948;2022-08-06T12:03:37;101295.75;;;18.89;44.40
43364;BME280;40636;52.424;-1.948;2022-08-06T12:06:24;101287.13;;;18.86;44.12
43364;BME280;40636;52.424;-1.948;2022-08-06T12:09:15;101294.34;;;18.87;43.58
43364;BME280;40636;52.424;-1.948;2022-08-06T12:14:57;101288.19;;;18.80;43.83
43364;BME280;40636;52.424;-1.948;2022-08-06T12:17:32;101289.91;;;18.91;44.51
43364;BME280;40636;52.424;-1.948;2022-08-06T12:20:38;101284.69;;;19.10;45.55
43364;BME280;40636;52.424;-1.948;2022-08-06T12:23:16;101280.53;;;19.17;44.36
43364;BME280;40636;52.424;-1.948;2022-08-06T12:25:46;101277.41;;;18.93;43.43
43364;BME280;40636;52.424;-1.948;2022-08-06T12:28:15;101267.38;;;18.92;43.69
43364;BME280;40636;52.424;-1.948;2022-08-06T12:30:51;101264.59;;;18.92;44.81
43364;BME280;40636;52.424;-1.948;2022-08-06T12:33:20;101273.56;;;19.10;43.92
43364;BME280;40636;52.424;-1.948;2022-08-06T12:35:55;101269.66;;;19.16;43.82
43364;BME280;40636;52.424;-1.948;2022-08-06T12:38:25;101261.88;;;19.18;43.02
43364;BME280;40636;52.424;-1.948;2022-08-06T12:41:00;101253.53;;;19.33;44.19
43364;BME280;40636;52.424;-1.948;2022-08-06T12:43:41;101248.50;;;19.25;42.54
43364;BME280;40636;52.424;-1.948;2022-08-06T12:46:23;101250.47;;;19.35;41.91
43364;BME280;40636;52.424;-1.948;2022-08-06T12:48:57;101256.91;;;19.45;43.12
43364;BME280;40636;52.424;-1.948;2022-08-06T12:51:27;101262.47;;;19.56;41.99
43364;BME280;40636;52.424;-1.948;2022-08-06T12:53:58;101256.06;;;19.50;42.24
43364;BME280;40636;52.424;-1.948;2022-08-06T12:56:28;101253.53;;;19.43;41.52
43364;BME280;40636;52.424;-1.948;2022-08-06T12:59:01;101256.63;;;19.42;40.76
43364;BME280;40636;52.424;-1.948;2022-08-06T13:01:33;101254.41;;;19.54;42.83
43364;BME280;40636;52.424;-1.948;2022-08-06T13:04:21;101257.75;;;19.66;41.39
43364;BME280;40636;52.424;-1.948;2022-08-06T13:06:58;101260.28;;;19.63;41.45
43364;BME280;40636;52.424;-1.948;2022-08-06T13:09:29;101256.66;;;19.72;41.48
43364;BME280;40636;52.424;-1.948;2022-08-06T13:12:12;101251.09;;;19.67;40.92
43364;BME280;40636;52.424;-1.948;2022-08-06T13:14:59;101248.81;;;19.59;42.07
43364;BME280;40636;52.424;-1.948;2022-08-06T13:18:10;101244.09;;;19.55;43.26
43364;BME280;40636;52.424;-1.948;2022-08-06T13:20:57;101237.41;;;19.40;41.93
43364;BME280;40636;52.424;-1.948;2022-08-06T13:26:12;101229.59;;;19.47;41.38
43364;BME280;40636;52.424;-1.948;2022-08-06T13:29:10;101227.38;;;19.49;41.67
43364;BME280;40636;52.424;-1.948;2022-08-06T13:32:05;101233.81;;;19.65;42.07
43364;BME280;40636;52.424;-1.948;2022-08-06T13:34:56;101228.50;;;19.74;40.96
43364;BME280;40636;52.424;-1.948;2022-08-06T13:37:47;101232.69;;;19.71;39.91
43364;BME280;40636;52.424;-1.948;2022-08-06T13:40:41;101231.56;;;19.77;40.74
43364;BME280;40636;52.424;-1.948;2022-08-06T13:43:43;101226.25;;;19.71;40.17
43364;BME280;40636;52.424;-1.948;2022-08-06T13:46:22;101220.97;;;19.74;41.37
43364;BME280;40636;52.424;-1.948;2022-08-06T13:48:56;101226.56;;;19.69;40.22
43364;BME280;40636;52.424;-1.948;2022-08-06T13:51:28;101227.63;;;19.89;40.34
43364;BME280;40636;52.424;-1.948;2022-08-06T13:54:03;101219.56;;;19.87;40.10
43364;BME280;40636;52.424;-1.948;2022-08-06T13:56:46;101216.78;;;19.82;40.42
43364;BME280;40636;52.424;-1.948;2022-08-06T13:59:15;101217.63;;;19.88;40.01
43364;BME280;40636;52.424;-1.948;2022-08-06T14:01:45;101217.31;;;19.89;40.21
43364;BME280;40636;52.424;-1.948;2022-08-06T14:04:14;101222.84;;;20.10;39.13
43364;BME280;40636;52.424;-1.948;2022-08-06T14:06:44;101222.00;;;20.14;38.52
43364;BME280;40636;52.424;-1.948;2022-08-06T14:09:13;101222.28;;;20.18;38.49
43364;BME280;40636;52.424;-1.948;2022-08-06T14:11:51;101209.16;;;20.23;40.01
43364;BME280;40636;52.424;-1.948;2022-08-06T14:14:20;101195.69;;;20.41;41.67
43364;BME280;40636;52.424;-1.948;2022-08-06T14:16:50;101207.06;;;20.60;39.31
43364;BME280;40636;52.424;-1.948;2022-08-06T14:19:18;101209.03;;;20.59;40.04
43364;BME280;40636;52.424;-1.948;2022-08-06T14:22:05;101210.19;;;20.53;39.96
43364;BME280;40636;52.424;-1.948;2022-08-06T14:24:42;101199.59;;;20.45;39.31
43364;BME280;40636;52.424;-1.948;2022-08-06T14:27:19;101201.25;;;20.51;41.26
43364;BME280;40636;52.424;-1.948;2022-08-06T14:29:51;101202.34;;;20.55;39.49
43364;BME280;40636;52.424;-1.948;2022-08-06T14:32:38;101202.34;;;20.55;39.76
43364;BME280;40636;52.424;-1.948;2022-08-06T14:35:07;101197.31;;;20.57;39.50
43364;BME280;40636;52.424;-1.948;2022-08-06T14:37:34;101186.94;;;20.68;40.78
43364;BME280;40636;52.424;-1.948;2022-08-06T14:40:22;101183.75;;;20.90;40.87